createdAt,value
2022-12-08T00:01:23.126Z,66.80
2022-12-08T00:03:51.713Z,66.80
2022-12-08T00:06:48.388Z,66.80
2022-12-08T00:09:24.305Z,66.90
2022-12-08T00:11:53.802Z,66.80
2022-12-08T00:14:25.484Z,66.90
2022-12-08T00:16:53.417Z,66.90
2022-12-08T00:19:21.733Z,66.90
2022-12-08T00:21:49.470Z,67.00
2022-12-08T00:24:17.312Z,67.00
2022-12-08T00:26:45.091Z,67.00
2022-12-08T00:29:17.186Z,67.00
2022-12-08T00:31:46.744Z,67.00
2022-12-08T00:34:15.163Z,67.00
2022-12-08T00:36:43.534Z,67.00
2022-12-08T00:39:12.875Z,67.00
2022-12-08T00:41:58.206Z,67.00
2022-12-08T00:44:26.103Z,67.00
2022-12-08T00:46:55.315Z,67.00
2022-12-08T00:49:23.861Z,67.10
2022-12-08T00:51:51.825Z,67.00
2022-12-08T00:54:20.260Z,67.90
2022-12-08T00:56:48.100Z,67.00
2022-12-08T00:59:15.919Z,67.00
2022-12-08T01:01:45.765Z,67.10
2022-12-08T01:04:17.762Z,67.10
2022-12-08T01:06:45.952Z,67.10
2022-12-08T01:09:15.572Z,67.10
2022-12-08T01:11:44.974Z,67.10
2022-12-08T01:14:12.933Z,67.10
2022-12-08T01:16:41.622Z,67.50
2022-12-08T01:19:11.907Z,67.10
2022-12-08T01:21:41.930Z,67.20
2022-12-08T01:24:12.898Z,67.20
2022-12-08T01:26:40.803Z,67.20
2022-12-08T01:29:08.617Z,67.20
2022-12-08T01:31:36.734Z,67.20
2022-12-08T01:34:04.974Z,67.30
2022-12-08T01:36:36.890Z,67.30
2022-12-08T01:39:09.059Z,67.30
2022-12-08T01:41:38.688Z,67.30
2022-12-08T01:44:41.956Z,67.30
2022-12-08T01:47:10.331Z,67.40
2022-12-08T01:49:38.563Z,67.30
2022-12-08T01:52:15.135Z,67.40
2022-12-08T01:54:48.257Z,67.40
2022-12-08T01:57:19.474Z,67.40
2022-12-08T01:59:51.927Z,67.40
2022-12-08T02:02:20.068Z,67.50
2022-12-08T02:04:48.013Z,67.40
2022-12-08T02:07:17.195Z,67.50
2022-12-08T02:09:47.141Z,67.40
2022-12-08T02:12:15.095Z,67.40
2022-12-08T02:14:42.974Z,67.50
2022-12-08T02:17:22.685Z,67.50
2022-12-08T02:20:17.964Z,67.50
2022-12-08T02:22:54.679Z,67.50
2022-12-08T02:25:29.531Z,68.30
2022-12-08T02:28:04.872Z,67.60
2022-12-08T02:30:44.036Z,67.60
2022-12-08T02:33:41.625Z,67.70
2022-12-08T02:36:16.940Z,67.70
2022-12-08T02:38:49.608Z,67.80
2022-12-08T02:41:28.973Z,67.80
2022-12-08T02:44:01.945Z,67.80
2022-12-08T02:46:33.760Z,67.80
2022-12-08T02:49:03.352Z,67.80
2022-12-08T02:51:32.452Z,67.90
2022-12-08T02:54:01.493Z,67.90
2022-12-08T02:56:44.357Z,67.90
2022-12-08T02:59:25.376Z,67.90
2022-12-08T03:02:09.553Z,68.00
2022-12-08T03:04:47.014Z,68.00
2022-12-08T03:07:24.385Z,68.00
2022-12-08T03:09:56.257Z,68.00
2022-12-08T03:12:29.751Z,68.00
2022-12-08T03:15:03.255Z,68.00
2022-12-08T03:17:32.518Z,68.00
2022-12-08T03:20:05.186Z,67.90
2022-12-08T03:22:34.794Z,68.00
2022-12-08T03:25:02.974Z,67.90
2022-12-08T03:27:32.399Z,68.00
2022-12-08T03:30:02.010Z,68.00
2022-12-08T03:32:35.405Z,68.00
2022-12-08T03:35:07.484Z,68.00
2022-12-08T03:37:38.723Z,68.00
2022-12-08T03:40:09.692Z,68.00
2022-12-08T03:42:37.428Z,68.00
2022-12-08T03:45:05.839Z,68.00
2022-12-08T03:47:33.576Z,68.00
2022-12-08T03:50:01.537Z,68.00
2022-12-08T03:52:29.604Z,68.00
2022-12-08T03:54:58.672Z,68.00
2022-12-08T03:57:26.484Z,68.00
2022-12-08T03:59:54.230Z,67.90
2022-12-08T04:02:22.111Z,67.90
2022-12-08T04:04:49.969Z,67.90
2022-12-08T04:07:17.693Z,67.90
2022-12-08T04:09:45.781Z,67.90
2022-12-08T04:12:14.845Z,67.90
2022-12-08T04:14:43.086Z,67.90
2022-12-08T04:17:10.803Z,67.90
2022-12-08T04:19:40.759Z,67.90
2022-12-08T04:22:08.675Z,67.90
2022-12-08T04:24:36.418Z,67.90
2022-12-08T04:27:04.287Z,67.90
2022-12-08T04:29:33.361Z,67.90
2022-12-08T04:32:01.097Z,67.90
2022-12-08T04:34:28.817Z,67.90
2022-12-08T04:36:56.563Z,67.90
2022-12-08T04:39:24.336Z,67.90
2022-12-08T04:41:52.056Z,67.90
2022-12-08T04:44:19.933Z,67.90
2022-12-08T04:46:49.010Z,67.90
2022-12-08T04:49:16.793Z,67.90
2022-12-08T04:51:44.548Z,67.90
2022-12-08T04:54:12.296Z,67.90
2022-12-08T04:56:40.039Z,67.90
2022-12-08T04:59:07.764Z,68.00
2022-12-08T05:01:35.604Z,68.10
2022-12-08T05:04:04.811Z,68.10
2022-12-08T05:06:32.503Z,68.20
2022-12-08T05:09:00.225Z,68.40
2022-12-08T05:11:27.969Z,68.40
2022-12-08T05:13:55.726Z,68.60
2022-12-08T05:16:23.527Z,68.60
2022-12-08T05:18:51.299Z,68.70
2022-12-08T05:21:20.370Z,68.70
2022-12-08T05:23:48.122Z,68.70
2022-12-08T05:26:15.854Z,68.80
2022-12-08T05:28:44.169Z,68.80
2022-12-08T05:31:12.622Z,68.80
2022-12-08T05:33:40.722Z,68.80
2022-12-08T05:36:09.575Z,68.70
2022-12-08T05:38:38.746Z,68.80
2022-12-08T05:41:07.516Z,68.70
2022-12-08T05:43:35.525Z,68.70
2022-12-08T05:46:03.442Z,68.70
2022-12-08T05:48:31.450Z,68.70
2022-12-08T05:50:59.171Z,68.60
2022-12-08T05:53:26.919Z,68.60
2022-12-08T05:55:56.002Z,68.60
2022-12-08T05:58:24.514Z,68.50
2022-12-08T06:00:52.669Z,68.50
2022-12-08T06:03:20.612Z,68.40
2022-12-08T06:05:48.902Z,68.40
2022-12-08T06:08:17.106Z,68.40
2022-12-08T06:10:46.356Z,68.30
2022-12-08T06:13:15.519Z,68.30
2022-12-08T06:15:43.594Z,68.20
2022-12-08T06:18:12.304Z,68.20
2022-12-08T06:20:40.032Z,68.20
2022-12-08T06:23:07.806Z,68.50
2022-12-08T06:25:35.542Z,68.50
2022-12-08T06:28:05.256Z,68.50
2022-12-08T06:30:34.320Z,68.50
2022-12-08T06:33:02.045Z,68.50
2022-12-08T06:35:29.788Z,68.50
2022-12-08T06:37:57.543Z,68.50
2022-12-08T06:40:25.283Z,68.50
2022-12-08T06:42:53.009Z,68.50
2022-12-08T06:45:20.748Z,68.50
2022-12-08T06:47:49.815Z,68.50
2022-12-08T06:50:17.581Z,68.40
2022-12-08T06:52:56.969Z,68.40
2022-12-08T06:58:19.443Z,68.40
2022-12-08T07:00:47.301Z,68.40
2022-12-08T07:03:16.460Z,68.40
2022-12-08T07:05:44.227Z,68.40
2022-12-08T07:08:12.076Z,68.30
2022-12-08T07:10:39.874Z,68.30
2022-12-08T07:13:07.666Z,68.20
2022-12-08T07:15:35.402Z,68.20
2022-12-08T07:18:03.133Z,68.10
2022-12-08T07:20:32.247Z,68.10
2022-12-08T07:22:59.975Z,68.00
2022-12-08T07:25:27.778Z,68.00
2022-12-08T07:27:55.550Z,67.90
2022-12-08T07:30:23.293Z,68.00
2022-12-08T07:32:51.021Z,67.80
2022-12-08T07:35:18.972Z,67.70
2022-12-08T07:37:48.045Z,67.70
2022-12-08T07:40:16.352Z,67.60
2022-12-08T07:42:44.076Z,67.70
2022-12-08T07:45:12.144Z,67.60
2022-12-08T07:47:39.860Z,67.50
2022-12-08T07:50:09.096Z,67.50
2022-12-08T07:52:36.883Z,67.40
2022-12-08T07:55:06.867Z,67.40
2022-12-08T07:57:34.629Z,67.30
2022-12-08T08:00:02.781Z,67.30
2022-12-08T08:02:39.659Z,67.20
2022-12-08T08:05:08.283Z,67.20
2022-12-08T08:07:37.050Z,67.10
2022-12-08T08:10:07.915Z,67.10
2022-12-08T08:12:36.435Z,67.10
2022-12-08T08:15:07.288Z,67.00
2022-12-08T08:17:35.878Z,67.00
2022-12-08T08:20:07.224Z,67.00
2022-12-08T08:22:36.271Z,67.00
2022-12-08T08:25:05.554Z,66.90
2022-12-08T08:27:34.635Z,66.90
2022-12-08T08:30:02.938Z,66.90
2022-12-08T08:32:33.776Z,66.90
2022-12-08T08:35:01.705Z,66.80
2022-12-08T08:37:29.871Z,66.80
2022-12-08T08:39:57.625Z,66.80
2022-12-08T08:42:25.654Z,66.70
2022-12-08T08:44:54.797Z,66.70
2022-12-08T08:47:23.524Z,66.70
2022-12-08T08:49:51.286Z,66.60
2022-12-08T08:52:19.093Z,66.60
2022-12-08T08:54:46.852Z,66.60
2022-12-08T08:57:14.690Z,66.60
2022-12-08T08:59:42.434Z,66.60
2022-12-08T09:02:18.195Z,66.50
2022-12-08T09:04:46.256Z,66.50
2022-12-08T09:07:15.623Z,66.50
2022-12-08T09:09:43.445Z,66.50
2022-12-08T09:12:13.898Z,66.50
2022-12-08T09:14:41.684Z,66.40
2022-12-08T09:17:10.136Z,66.40
2022-12-08T09:19:39.208Z,66.40
2022-12-08T09:22:07.051Z,66.40
2022-12-08T09:24:34.808Z,66.40
2022-12-08T09:27:02.578Z,66.40
2022-12-08T09:29:35.573Z,66.40
2022-12-08T09:32:04.171Z,66.30
2022-12-08T09:34:32.387Z,66.30
2022-12-08T09:37:01.769Z,66.30
2022-12-08T09:39:29.611Z,66.30
2022-12-08T09:42:01.068Z,66.30
2022-12-08T09:44:47.570Z,66.30
2022-12-08T09:47:23.073Z,66.30
2022-12-08T09:49:57.559Z,66.30
2022-12-08T09:52:30.970Z,66.20
2022-12-08T09:55:02.204Z,66.20
2022-12-08T09:57:31.842Z,66.20
2022-12-08T10:00:05.482Z,66.20
2022-12-08T10:02:33.970Z,66.20
2022-12-08T10:05:01.874Z,66.10
2022-12-08T10:07:39.639Z,66.10
2022-12-08T10:10:17.699Z,66.20
2022-12-08T10:12:49.842Z,66.10
2022-12-08T10:15:33.683Z,66.10
2022-12-08T10:18:03.719Z,66.10
2022-12-08T10:20:39.575Z,65.80
2022-12-08T10:23:20.018Z,63.70
2022-12-08T10:25:50.008Z,62.70
2022-12-08T10:28:17.898Z,63.30
2022-12-08T10:30:45.841Z,63.70
2022-12-08T10:33:17.234Z,63.70
2022-12-08T10:35:47.286Z,63.50
2022-12-08T10:38:22.439Z,63.50
2022-12-08T10:40:52.846Z,63.50
2022-12-08T10:43:24.823Z,63.50
2022-12-08T10:45:53.047Z,63.60
2022-12-08T10:48:23.190Z,63.70
2022-12-08T10:50:55.573Z,63.80
2022-12-08T10:53:26.209Z,64.00
2022-12-08T10:56:06.669Z,64.10
2022-12-08T10:58:37.155Z,64.30
2022-12-08T11:01:10.674Z,64.40
2022-12-08T11:03:44.616Z,64.80
2022-12-08T11:06:17.013Z,64.70
2022-12-08T11:08:56.619Z,64.80
2022-12-08T11:11:39.464Z,64.70
2022-12-08T11:14:09.353Z,64.60
2022-12-08T11:16:37.328Z,64.50
2022-12-08T11:19:07.379Z,64.50
2022-12-08T11:21:37.956Z,64.60
2022-12-08T11:24:23.856Z,64.60
2022-12-08T11:26:55.205Z,64.60
2022-12-08T11:29:23.318Z,64.60
2022-12-08T11:31:55.598Z,64.70
2022-12-08T11:34:31.456Z,64.70
2022-12-08T11:37:00.368Z,64.70
2022-12-08T11:39:33.140Z,64.70
2022-12-08T11:42:03.622Z,64.80
2022-12-08T11:44:37.955Z,64.80
2022-12-08T11:47:11.507Z,64.80
2022-12-08T11:49:41.893Z,64.80
2022-12-08T11:52:19.095Z,64.80
2022-12-08T11:54:53.711Z,64.90
2022-12-08T11:57:24.016Z,64.90
2022-12-08T11:59:54.300Z,65.00
2022-12-08T12:02:25.075Z,65.00
2022-12-08T12:04:58.231Z,65.00
2022-12-08T12:07:52.395Z,65.00
2022-12-08T12:10:46.402Z,65.00
2022-12-08T12:13:40.955Z,65.10
2022-12-08T12:16:42.708Z,65.10
2022-12-08T12:19:15.689Z,65.00
2022-12-08T12:21:46.162Z,65.00
2022-12-08T12:24:23.928Z,64.90
2022-12-08T12:27:02.423Z,65.00
2022-12-08T12:29:33.061Z,65.00
2022-12-08T12:32:03.853Z,65.00
2022-12-08T12:34:34.068Z,65.00
2022-12-08T12:37:08.735Z,64.90
2022-12-08T12:39:50.660Z,64.90
2022-12-08T12:42:39.310Z,64.90
2022-12-08T12:45:26.317Z,65.60
2022-12-08T12:48:20.651Z,64.80
2022-12-08T12:50:49.433Z,64.80
2022-12-08T12:53:49.616Z,64.80
2022-12-08T12:56:53.747Z,64.80
2022-12-08T13:00:08.205Z,64.80
2022-12-08T13:02:40.394Z,64.70
2022-12-08T13:05:12.152Z,64.60
2022-12-08T13:07:44.703Z,64.60
2022-12-08T13:10:19.788Z,64.60
2022-12-08T13:13:03.447Z,64.60
2022-12-08T13:15:37.698Z,64.60
2022-12-08T13:18:06.628Z,64.60
2022-12-08T13:20:43.160Z,64.50
2022-12-08T13:23:30.929Z,64.50
2022-12-08T13:26:18.831Z,64.50
2022-12-08T13:29:15.916Z,64.50
2022-12-08T13:31:51.052Z,64.50
2022-12-08T13:34:30.317Z,65.30
2022-12-08T13:37:08.264Z,64.50
2022-12-08T13:39:44.322Z,64.50
2022-12-08T13:42:20.568Z,64.50
2022-12-08T13:48:20.496Z,64.50
2022-12-08T13:52:33.098Z,64.50
2022-12-08T13:54:35.489Z,64.60
2022-12-08T13:59:11.356Z,64.60
2022-12-08T14:01:45.291Z,64.60
2022-12-08T14:05:01.302Z,64.60
2022-12-08T14:07:06.604Z,64.60
2022-12-08T14:09:37.738Z,64.70
2022-12-08T14:12:09.371Z,64.70
2022-12-08T14:17:29.723Z,64.70
2022-12-08T14:20:00.808Z,64.70
2022-12-08T14:22:34.770Z,64.70
2022-12-08T14:25:02.853Z,64.70
2022-12-08T14:27:35.609Z,64.70
2022-12-08T14:30:07.993Z,64.70
2022-12-08T14:32:39.984Z,64.80
2022-12-08T14:35:21.503Z,64.70
2022-12-08T14:37:51.490Z,64.70
2022-12-08T14:40:24.040Z,64.60
2022-12-08T14:42:53.884Z,64.70
2022-12-08T14:45:22.285Z,64.70
2022-12-08T14:47:51.068Z,64.70
2022-12-08T14:50:40.237Z,64.80
2022-12-08T14:53:14.943Z,64.70
2022-12-08T14:55:45.254Z,64.70
2022-12-08T14:58:19.272Z,64.70
2022-12-08T15:00:48.874Z,64.70
2022-12-08T15:03:17.705Z,64.70
2022-12-08T15:05:51.241Z,64.70
2022-12-08T15:08:19.729Z,64.70
2022-12-08T15:10:48.384Z,64.70
2022-12-08T15:13:23.537Z,64.70
2022-12-08T15:15:52.880Z,64.70
2022-12-08T15:18:29.065Z,64.60
2022-12-08T15:21:03.725Z,64.60
2022-12-08T15:23:33.597Z,64.60
2022-12-08T15:26:01.401Z,64.60
2022-12-08T15:28:30.782Z,64.60
2022-12-08T15:30:58.888Z,64.60
2022-12-08T15:33:27.349Z,64.60
2022-12-08T15:35:55.137Z,64.60
2022-12-08T15:38:26.556Z,64.50
2022-12-08T15:40:55.383Z,64.50
2022-12-08T15:43:23.931Z,64.50
2022-12-08T15:45:59.167Z,64.50
2022-12-08T15:48:29.695Z,64.50
2022-12-08T15:50:58.067Z,64.40
2022-12-08T15:53:27.304Z,64.40
2022-12-08T15:56:26.434Z,64.50
2022-12-08T15:58:59.401Z,64.40
2022-12-08T16:01:27.894Z,64.40
2022-12-08T16:09:39.289Z,64.40
2022-12-08T16:12:25.793Z,64.40
2022-12-08T16:17:42.090Z,64.30
2022-12-08T16:20:14.268Z,64.30
2022-12-08T16:23:13.098Z,64.30
2022-12-08T16:25:52.708Z,64.20
2022-12-08T16:28:52.016Z,64.20
2022-12-08T16:31:13.046Z,64.20
2022-12-08T16:33:41.907Z,64.20
2022-12-08T16:36:11.094Z,64.20
2022-12-08T16:38:38.921Z,64.20
2022-12-08T16:41:30.286Z,64.30
2022-12-08T16:44:02.440Z,64.30
2022-12-08T16:46:30.290Z,64.30
2022-12-08T16:48:58.803Z,64.30
2022-12-08T16:51:27.797Z,64.30
2022-12-08T16:53:56.765Z,64.30
2022-12-08T16:56:32.243Z,64.20
2022-12-08T16:59:01.577Z,64.20
2022-12-08T17:01:29.468Z,64.10
2022-12-08T17:06:45.137Z,64.10
2022-12-08T17:09:12.886Z,64.10
2022-12-08T17:11:43.652Z,64.00
2022-12-08T17:14:12.169Z,64.00
2022-12-08T17:16:40.338Z,64.00
2022-12-08T17:19:08.312Z,64.10
2022-12-08T17:21:36.189Z,64.00
2022-12-08T17:24:04.009Z,63.90
2022-12-08T17:26:31.921Z,63.90
2022-12-08T17:29:02.243Z,63.90
2022-12-08T17:31:31.974Z,63.90
2022-12-08T17:34:00.566Z,63.80
2022-12-08T17:36:28.455Z,63.80
2022-12-08T17:38:56.423Z,63.80
2022-12-08T17:41:24.158Z,63.80
2022-12-08T17:43:51.900Z,63.80
2022-12-08T17:46:21.815Z,63.80
2022-12-08T17:48:50.211Z,63.70
2022-12-08T17:51:18.049Z,63.70
2022-12-08T17:53:46.177Z,63.70
2022-12-08T17:56:18.573Z,63.70
2022-12-08T17:58:51.266Z,63.70
2022-12-08T18:01:24.140Z,63.60
2022-12-08T18:03:52.435Z,63.60
2022-12-08T18:06:20.370Z,63.60
2022-12-08T18:08:48.164Z,64.40
2022-12-08T18:11:18.227Z,63.60
2022-12-08T18:13:46.713Z,63.50
2022-12-08T18:16:15.165Z,63.50
2022-12-08T18:18:44.335Z,63.50
2022-12-08T18:21:12.140Z,63.50
2022-12-08T18:23:40.596Z,63.70
2022-12-08T18:26:10.304Z,63.90
2022-12-08T18:28:39.056Z,64.00
2022-12-08T18:31:09.748Z,64.10
2022-12-08T18:33:38.133Z,64.20
2022-12-08T18:36:10.151Z,64.30
2022-12-08T18:38:38.371Z,64.40
2022-12-08T18:41:07.920Z,64.40
2022-12-08T18:43:35.771Z,64.30
2022-12-08T18:46:04.025Z,64.30
2022-12-08T18:48:31.828Z,64.30
2022-12-08T18:50:59.682Z,64.40
2022-12-08T18:53:28.749Z,64.40
2022-12-08T18:55:56.479Z,64.50
2022-12-08T18:58:24.176Z,64.50
2022-12-08T19:00:51.929Z,64.50
2022-12-08T19:03:19.665Z,64.50
2022-12-08T19:05:47.473Z,64.60
2022-12-08T19:08:15.456Z,64.60
2022-12-08T19:10:44.641Z,64.50
2022-12-08T19:13:12.452Z,64.60
2022-12-08T19:15:40.265Z,64.60
2022-12-08T19:18:08.044Z,64.60
2022-12-08T19:20:35.781Z,64.50
2022-12-08T19:23:03.521Z,64.60
2022-12-08T19:25:31.369Z,64.60
2022-12-08T19:28:00.410Z,64.60
2022-12-08T19:30:28.146Z,64.60
2022-12-08T19:32:55.837Z,64.60
2022-12-08T19:35:23.576Z,64.60
2022-12-08T19:37:51.337Z,64.60
2022-12-08T19:40:36.381Z,64.60
2022-12-08T19:43:23.163Z,64.60
2022-12-08T19:45:50.962Z,64.50
2022-12-08T19:48:18.719Z,64.50
2022-12-08T19:50:46.494Z,64.50
2022-12-08T19:53:16.069Z,64.50
2022-12-08T19:55:44.871Z,64.50
2022-12-08T19:58:14.007Z,64.50
2022-12-08T20:00:42.396Z,64.50
2022-12-08T20:03:11.557Z,64.50
2022-12-08T20:05:41.731Z,64.60
2022-12-08T20:08:09.790Z,64.50
2022-12-08T20:10:40.084Z,64.50
2022-12-08T20:13:27.076Z,64.50
2022-12-08T20:15:56.477Z,64.40
2022-12-08T20:18:25.322Z,64.40
2022-12-08T20:20:53.210Z,64.30
2022-12-08T20:23:20.933Z,64.30
2022-12-08T20:25:48.888Z,64.20
2022-12-08T20:28:18.817Z,64.20
2022-12-08T20:30:48.848Z,64.30
2022-12-08T20:33:19.931Z,64.30
2022-12-08T20:35:47.902Z,64.20
2022-12-08T20:38:16.022Z,64.30
2022-12-08T20:40:45.659Z,64.30
2022-12-08T20:43:13.398Z,64.30
2022-12-08T20:45:41.106Z,64.20
2022-12-08T20:48:09.025Z,64.20
2022-12-08T20:50:38.369Z,64.20
2022-12-08T20:53:06.227Z,64.10
2022-12-08T20:55:35.362Z,64.20
2022-12-08T20:58:03.175Z,64.10
2022-12-08T21:00:31.044Z,64.00
2022-12-08T21:02:59.059Z,63.90
2022-12-08T21:05:27.069Z,63.90
2022-12-08T21:07:56.316Z,63.90
2022-12-08T21:10:24.305Z,63.90
2022-12-08T21:12:52.215Z,63.90
2022-12-08T21:15:20.139Z,64.00
2022-12-08T21:17:48.095Z,64.00
2022-12-08T21:20:15.977Z,64.00
2022-12-08T21:22:43.803Z,64.00
2022-12-08T21:25:13.181Z,64.10
2022-12-08T21:27:41.016Z,64.10
2022-12-08T21:30:10.718Z,64.10
2022-12-08T21:32:39.838Z,64.10
2022-12-08T21:35:09.281Z,64.20
2022-12-08T21:37:37.705Z,64.20
2022-12-08T21:40:07.949Z,64.30
2022-12-08T21:42:46.538Z,64.30
2022-12-08T21:45:16.453Z,64.30
2022-12-08T21:47:45.401Z,64.30
2022-12-08T21:50:13.991Z,64.30
2022-12-08T21:52:42.783Z,64.40
2022-12-08T21:55:13.031Z,64.40
2022-12-08T21:57:42.223Z,64.40
2022-12-08T22:00:14.336Z,64.40
2022-12-08T22:02:42.478Z,64.50
2022-12-08T22:05:11.125Z,64.50
2022-12-08T22:07:40.763Z,64.60
2022-12-08T22:10:10.654Z,64.60
2022-12-08T22:12:39.593Z,64.60
2022-12-08T22:15:10.991Z,65.40
2022-12-08T22:17:40.686Z,64.70
2022-12-08T22:20:11.462Z,64.70
2022-12-08T22:22:39.923Z,64.80
2022-12-08T22:25:11.061Z,64.80
2022-12-08T22:27:39.311Z,64.80
2022-12-08T22:30:10.630Z,64.80
2022-12-08T22:32:39.478Z,64.90
2022-12-08T22:35:07.937Z,64.90
2022-12-08T22:37:35.877Z,64.90
2022-12-08T22:40:04.538Z,65.00
2022-12-08T22:42:32.646Z,65.00
2022-12-08T22:45:00.686Z,65.00
2022-12-08T22:47:29.985Z,65.10
2022-12-08T22:49:58.111Z,65.10
2022-12-08T22:52:26.035Z,65.10
2022-12-08T22:54:54.239Z,65.10
2022-12-08T22:57:22.309Z,65.10
2022-12-08T22:59:50.240Z,65.20
2022-12-08T23:02:17.983Z,65.20
2022-12-08T23:04:47.279Z,65.20
2022-12-08T23:07:15.277Z,65.20
2022-12-08T23:09:43.464Z,65.30
2022-12-08T23:12:11.204Z,65.30
2022-12-08T23:14:39.069Z,65.30
2022-12-08T23:17:06.909Z,65.30
2022-12-08T23:19:36.936Z,65.30
2022-12-08T23:22:06.638Z,65.40
2022-12-08T23:24:34.396Z,65.40
2022-12-08T23:27:02.260Z,65.40
2022-12-08T23:29:30.086Z,65.40
2022-12-08T23:31:57.914Z,65.40
2022-12-08T23:34:25.819Z,65.40
2022-12-08T23:36:53.571Z,65.50
2022-12-08T23:39:24.692Z,65.50
2022-12-08T23:41:52.742Z,65.50
2022-12-08T23:44:20.683Z,65.50
2022-12-08T23:46:48.543Z,65.50
2022-12-08T23:49:17.016Z,65.60
2022-12-08T23:51:44.805Z,65.50
2022-12-08T23:54:12.640Z,65.60
2022-12-08T23:56:41.781Z,65.60
2022-12-08T23:59:09.752Z,65.60
